createdAt,value
2019-01-10T00:00:04.586Z,1.39
2019-01-10T00:00:17.009Z,1.39
2019-01-10T00:00:29.482Z,1.39
2019-01-10T00:00:42.138Z,1.39
2019-01-10T00:00:54.506Z,1.39
2019-01-10T00:01:06.857Z,1.39
2019-01-10T00:01:19.225Z,1.39
2019-01-10T00:01:31.583Z,1.39
2019-01-10T00:01:43.949Z,1.39
2019-01-10T00:01:58.511Z,1.39
2019-01-10T00:02:10.877Z,1.39
2019-01-10T00:02:23.330Z,1.39
2019-01-10T00:02:35.692Z,1.39
2019-01-10T00:02:48.181Z,1.39
2019-01-10T00:03:00.815Z,1.39
2019-01-10T00:03:13.195Z,1.39
2019-01-10T00:03:25.552Z,1.39
2019-01-10T00:03:37.970Z,1.39
2019-01-10T00:03:50.336Z,1.39
2019-01-10T00:04:02.696Z,1.39
2019-01-10T00:04:15.125Z,1.39
2019-01-10T00:04:27.471Z,1.39
2019-01-10T00:04:39.834Z,1.39
2019-01-10T00:04:52.481Z,1.39
2019-01-10T00:05:04.865Z,1.39
2019-01-10T00:05:17.228Z,1.39
2019-01-10T00:05:29.858Z,1.39
2019-01-10T00:05:42.230Z,1.39
2019-01-10T00:05:54.588Z,1.39
2019-01-10T00:06:07.002Z,1.39
2019-01-10T00:06:19.390Z,1.39
2019-01-10T00:06:31.824Z,1.39
2019-01-10T00:06:44.167Z,1.39
2019-01-10T00:06:56.512Z,1.39
2019-01-10T00:07:08.860Z,1.39
2019-01-10T00:07:21.227Z,1.39
2019-01-10T00:07:33.581Z,1.39
2019-01-10T00:07:45.968Z,1.39
2019-01-10T00:07:58.574Z,1.39
2019-01-10T00:08:11.211Z,1.39
2019-01-10T00:08:23.593Z,1.39
2019-01-10T00:08:35.954Z,1.39
2019-01-10T00:08:48.322Z,1.39
2019-01-10T00:09:00.677Z,1.39
2019-01-10T00:09:13.185Z,1.39
2019-01-10T00:09:25.532Z,1.39
2019-01-10T00:09:38.164Z,0.75
2019-01-10T00:09:50.505Z,0.75
2019-01-10T00:10:02.934Z,0.75
2019-01-10T00:10:17.378Z,0.75
2019-01-10T00:10:29.848Z,0.75
2019-01-10T00:10:42.224Z,0.75
2019-01-10T00:10:54.593Z,0.75
2019-01-10T00:11:06.968Z,0.75
2019-01-10T00:11:19.317Z,0.75
2019-01-10T00:11:31.672Z,0.75
2019-01-10T00:11:44.023Z,0.75
2019-01-10T00:11:56.371Z,0.75
2019-01-10T00:12:08.728Z,0.75
2019-01-10T00:12:21.105Z,0.75
2019-01-10T00:12:42.807Z,0.75
2019-01-10T00:12:55.176Z,0.75
2019-01-10T00:13:07.527Z,0.75
2019-01-10T00:13:19.885Z,0.75
2019-01-10T00:13:32.244Z,0.75
2019-01-10T00:13:44.594Z,0.75
2019-01-10T00:13:57.030Z,0.75
2019-01-10T00:14:09.387Z,0.75
2019-01-10T00:14:21.735Z,0.75
2019-01-10T00:14:34.171Z,0.75
2019-01-10T00:14:46.531Z,0.75
2019-01-10T00:14:58.870Z,0.75
2019-01-10T00:15:11.276Z,0.75
2019-01-10T00:15:23.637Z,0.75
2019-01-10T00:15:35.989Z,0.75
2019-01-10T00:15:48.345Z,0.75
2019-01-10T00:16:00.714Z,0.75
2019-01-10T00:16:13.095Z,0.75
2019-01-10T00:16:25.446Z,0.75
2019-01-10T00:16:37.794Z,0.75
2019-01-10T00:16:50.282Z,0.75
2019-01-10T00:17:02.638Z,0.75
2019-01-10T00:17:14.990Z,0.75
2019-01-10T00:17:27.335Z,0.75
2019-01-10T00:17:39.685Z,0.75
2019-01-10T00:17:53.595Z,0.75
2019-01-10T00:18:05.954Z,0.75
2019-01-10T00:18:18.388Z,0.75
2019-01-10T00:18:30.937Z,0.75
2019-01-10T00:18:43.349Z,0.75
2019-01-10T00:18:55.756Z,0.75
2019-01-10T00:19:08.114Z,0.75
2019-01-10T00:19:20.546Z,0.75
2019-01-10T00:19:32.897Z,0.75
2019-01-10T00:19:45.250Z,0.75
2019-01-10T00:19:57.694Z,0.75
2019-01-10T00:20:10.049Z,0.75
2019-01-10T00:20:22.402Z,0.75
2019-01-10T00:20:34.750Z,0.75
2019-01-10T00:20:47.210Z,0.75
2019-01-10T00:20:59.559Z,0.75
2019-01-10T00:21:11.904Z,0.75
2019-01-10T00:21:24.257Z,0.75
2019-01-10T00:21:36.622Z,0.75
2019-01-10T00:21:48.979Z,0.75
2019-01-10T00:22:01.325Z,0.75
2019-01-10T00:22:13.695Z,0.75
2019-01-10T00:22:26.213Z,0.75
2019-01-10T00:22:38.571Z,0.75
2019-01-10T00:22:50.945Z,0.75
2019-01-10T00:23:03.296Z,0.75
2019-01-10T00:23:15.810Z,0.75
2019-01-10T00:23:28.161Z,0.75
2019-01-10T00:23:40.515Z,0.75
2019-01-10T00:23:52.876Z,0.75
2019-01-10T00:24:05.249Z,0.75
2019-01-10T00:24:17.608Z,0.75
2019-01-10T00:24:29.973Z,0.75
2019-01-10T00:24:42.334Z,0.75
2019-01-10T00:24:54.717Z,0.75
2019-01-10T00:25:07.130Z,0.75
2019-01-10T00:25:19.502Z,0.75
2019-01-10T00:25:31.859Z,0.75
2019-01-10T00:25:44.214Z,0.75
2019-01-10T00:25:56.567Z,0.75
2019-01-10T00:26:08.901Z,0.75
2019-01-10T00:26:21.669Z,0.75
2019-01-10T00:26:34.276Z,0.75
2019-01-10T00:26:46.638Z,0.75
2019-01-10T00:26:58.990Z,0.75
2019-01-10T00:27:11.348Z,0.75
2019-01-10T00:27:23.793Z,0.75
2019-01-10T00:27:36.405Z,0.75
2019-01-10T00:27:48.861Z,0.75
2019-01-10T00:28:01.255Z,0.75
2019-01-10T00:28:13.613Z,0.75
2019-01-10T00:28:25.972Z,0.75
2019-01-10T00:28:38.313Z,0.75
2019-01-10T00:28:50.667Z,0.75
2019-01-10T00:29:03.162Z,0.75
2019-01-10T00:29:15.532Z,0.75
2019-01-10T00:29:27.936Z,0.75
2019-01-10T00:29:40.270Z,1
2019-01-10T00:29:52.620Z,1
2019-01-10T00:30:05.033Z,1
2019-01-10T00:30:17.398Z,1
2019-01-10T00:30:29.771Z,1
2019-01-10T00:30:42.109Z,1
2019-01-10T00:30:54.617Z,1
2019-01-10T00:31:06.984Z,1
2019-01-10T00:31:19.342Z,1
2019-01-10T00:31:31.693Z,1
2019-01-10T00:31:44.058Z,1
2019-01-10T00:31:56.619Z,1
2019-01-10T00:32:08.979Z,1
2019-01-10T00:32:21.337Z,1
2019-01-10T00:32:33.702Z,1
2019-01-10T00:32:46.060Z,1
2019-01-10T00:32:58.421Z,1
2019-01-10T00:33:10.980Z,1
2019-01-10T00:33:23.367Z,1
2019-01-10T00:33:35.738Z,1
2019-01-10T00:33:48.096Z,1
2019-01-10T00:34:00.472Z,1
2019-01-10T00:34:12.827Z,1
2019-01-10T00:34:25.266Z,1
2019-01-10T00:34:37.642Z,1
2019-01-10T00:34:50.106Z,1
2019-01-10T00:35:02.612Z,1
2019-01-10T00:35:14.986Z,1
2019-01-10T00:35:27.387Z,1
2019-01-10T00:35:39.794Z,1
2019-01-10T00:35:52.145Z,1
2019-01-10T00:36:04.705Z,1
2019-01-10T00:36:17.093Z,1
2019-01-10T00:36:29.457Z,1
2019-01-10T00:36:42.027Z,1
2019-01-10T00:36:54.437Z,1
2019-01-10T00:37:06.801Z,1
2019-01-10T00:37:19.172Z,1
2019-01-10T00:37:31.674Z,1
2019-01-10T00:37:44.032Z,1
2019-01-10T00:37:56.585Z,1
2019-01-10T00:38:08.930Z,1
2019-01-10T00:38:21.351Z,1
2019-01-10T00:38:33.709Z,1
2019-01-10T00:38:46.052Z,1
2019-01-10T00:38:58.547Z,1
2019-01-10T00:39:10.959Z,1
2019-01-10T00:39:23.324Z,1
2019-01-10T00:39:35.674Z,1
2019-01-10T00:39:49.685Z,1.35
2019-01-10T00:40:02.053Z,1.35
2019-01-10T00:40:14.678Z,1.35
2019-01-10T00:40:27.061Z,1.35
2019-01-10T00:40:39.421Z,1.35
2019-01-10T00:40:52.096Z,1.35
2019-01-10T00:41:04.558Z,1.35
2019-01-10T00:41:17.066Z,1.35
2019-01-10T00:41:29.410Z,1.35
2019-01-10T00:41:41.892Z,1.35
2019-01-10T00:41:54.299Z,1.35
2019-01-10T00:42:06.670Z,1.35
2019-01-10T00:42:19.016Z,1.35
2019-01-10T00:42:31.360Z,1.35
2019-01-10T00:42:53.561Z,1.35
2019-01-10T00:43:05.916Z,1.35
2019-01-10T00:43:18.431Z,1.35
2019-01-10T00:43:30.783Z,1.35
2019-01-10T00:43:43.127Z,1.35
2019-01-10T00:43:55.481Z,1.35
2019-01-10T00:44:07.915Z,1.35
2019-01-10T00:44:21.126Z,1.35
2019-01-10T00:44:33.476Z,1.35
2019-01-10T00:44:46.120Z,1.35
2019-01-10T00:44:58.506Z,1.35
2019-01-10T00:45:10.977Z,1.35
2019-01-10T00:45:23.338Z,1.35
2019-01-10T00:45:35.708Z,1.35
2019-01-10T00:45:48.217Z,1.35
2019-01-10T00:46:00.562Z,1.35
2019-01-10T00:46:12.920Z,1.35
2019-01-10T00:46:25.354Z,1.35
2019-01-10T00:46:37.705Z,1.35
2019-01-10T00:46:50.053Z,1.35
2019-01-10T00:47:02.646Z,1.35
2019-01-10T00:47:15.130Z,1.35
2019-01-10T00:47:27.493Z,1.35
2019-01-10T00:47:39.836Z,1.35
2019-01-10T00:47:52.208Z,1.35
2019-01-10T00:48:04.792Z,1.35
2019-01-10T00:48:17.136Z,1.35
2019-01-10T00:48:29.481Z,1.35
2019-01-10T00:48:41.821Z,1.35
2019-01-10T00:48:54.226Z,1.35
2019-01-10T00:49:06.593Z,1.35
2019-01-10T00:49:18.957Z,1.35
2019-01-10T00:49:31.325Z,1.35
2019-01-10T00:49:43.686Z,0.7
2019-01-10T00:49:56.037Z,0.7
2019-01-10T00:50:08.489Z,0.7
2019-01-10T00:50:21.004Z,0.7
2019-01-10T00:50:33.516Z,0.7
2019-01-10T00:50:45.872Z,0.7
2019-01-10T00:50:58.230Z,0.7
2019-01-10T00:51:10.605Z,0.7
2019-01-10T00:51:23.063Z,0.7
2019-01-10T00:51:35.423Z,0.7
2019-01-10T00:51:47.844Z,0.7
2019-01-10T00:52:00.184Z,0.7
2019-01-10T00:52:12.554Z,0.7
2019-01-10T00:52:24.899Z,0.7
2019-01-10T00:52:37.262Z,0.7
2019-01-10T00:52:49.636Z,0.7
2019-01-10T00:53:02.168Z,0.7
2019-01-10T00:53:14.625Z,0.7
2019-01-10T00:53:26.979Z,0.7
2019-01-10T00:53:39.432Z,0.7
2019-01-10T00:53:51.784Z,0.7
2019-01-10T00:54:04.155Z,0.7
2019-01-10T00:54:16.508Z,0.7
2019-01-10T00:54:28.855Z,0.7
2019-01-10T00:54:41.205Z,0.7
2019-01-10T00:54:53.558Z,0.7
2019-01-10T00:55:05.988Z,0.7
2019-01-10T00:55:18.353Z,0.7
2019-01-10T00:55:30.713Z,0.7
2019-01-10T00:55:43.215Z,0.7
2019-01-10T00:55:55.739Z,0.7
2019-01-10T00:56:08.163Z,0.7
2019-01-10T00:56:20.516Z,0.7
2019-01-10T00:56:32.865Z,0.7
2019-01-10T00:56:45.216Z,0.7
2019-01-10T00:56:57.569Z,0.7
2019-01-10T00:57:09.908Z,0.7
2019-01-10T00:57:22.305Z,0.7
2019-01-10T00:57:34.811Z,0.7
2019-01-10T00:57:47.158Z,0.7
2019-01-10T00:57:59.517Z,0.7
2019-01-10T00:58:11.867Z,0.7
2019-01-10T00:58:24.230Z,0.7
2019-01-10T00:58:36.610Z,0.7
2019-01-10T00:58:48.981Z,0.7
2019-01-10T00:59:01.327Z,0.7
2019-01-10T00:59:13.703Z,0.7
2019-01-10T00:59:26.082Z,0.7
2019-01-10T00:59:38.430Z,0.6
2019-01-10T00:59:50.804Z,0.6
2019-01-10T01:00:03.166Z,0.6
2019-01-10T01:00:15.562Z,0.6
2019-01-10T01:00:28.157Z,0.6
2019-01-10T01:00:40.506Z,0.6
2019-01-10T01:00:53.000Z,0.6
2019-01-10T01:01:05.357Z,0.6
2019-01-10T01:01:17.787Z,0.6
2019-01-10T01:01:30.256Z,0.6
2019-01-10T01:01:42.628Z,0.6
2019-01-10T01:01:55.016Z,0.6
2019-01-10T01:02:07.381Z,0.6
2019-01-10T01:02:19.731Z,0.6
2019-01-10T01:02:32.128Z,0.6
2019-01-10T01:02:44.590Z,0.6
2019-01-10T01:02:57.096Z,0.6
2019-01-10T01:03:09.461Z,0.6
2019-01-10T01:03:21.838Z,0.6
2019-01-10T01:03:34.210Z,0.6
2019-01-10T01:03:46.590Z,0.6
2019-01-10T01:03:58.955Z,0.6
2019-01-10T01:04:11.345Z,0.6
2019-01-10T01:04:23.717Z,0.6
2019-01-10T01:04:36.093Z,0.6
2019-01-10T01:04:48.551Z,0.6
2019-01-10T01:05:01.059Z,0.6
2019-01-10T01:05:13.426Z,0.6
2019-01-10T01:05:25.951Z,0.6
2019-01-10T01:05:38.421Z,0.6
2019-01-10T01:05:50.783Z,0.6
2019-01-10T01:06:03.125Z,0.6
2019-01-10T01:06:16.988Z,0.6
2019-01-10T01:06:29.378Z,0.6
2019-01-10T01:06:41.731Z,0.6
2019-01-10T01:06:54.182Z,0.6
2019-01-10T01:07:06.523Z,0.6
2019-01-10T01:07:18.887Z,0.6
2019-01-10T01:07:31.247Z,0.6
2019-01-10T01:07:43.689Z,0.6
2019-01-10T01:07:56.156Z,0.6
2019-01-10T01:08:08.521Z,0.6
2019-01-10T01:08:20.881Z,0.6
2019-01-10T01:08:33.250Z,0.6
2019-01-10T01:08:45.612Z,0.6
2019-01-10T01:08:57.985Z,0.6
2019-01-10T01:09:10.502Z,0.6
2019-01-10T01:09:22.846Z,0.6
2019-01-10T01:09:35.294Z,0.6
2019-01-10T01:09:47.789Z,0.95
2019-01-10T01:10:00.157Z,0.95
2019-01-10T01:10:12.550Z,0.95
2019-01-10T01:10:24.917Z,0.95
2019-01-10T01:10:37.284Z,0.95
2019-01-10T01:10:49.637Z,0.95
2019-01-10T01:11:01.995Z,0.95
2019-01-10T01:11:14.363Z,0.95
2019-01-10T01:11:26.718Z,0.95
2019-01-10T01:11:39.081Z,0.95
2019-01-10T01:11:53.676Z,0.95
2019-01-10T01:12:06.047Z,0.95
2019-01-10T01:12:18.422Z,0.95
2019-01-10T01:12:30.795Z,0.95
2019-01-10T01:12:43.151Z,0.95
2019-01-10T01:13:05.111Z,0.95
2019-01-10T01:13:17.482Z,0.95
2019-01-10T01:13:29.838Z,0.95
2019-01-10T01:13:42.188Z,0.95
2019-01-10T01:13:54.558Z,0.95
2019-01-10T01:14:06.923Z,0.95
2019-01-10T01:14:19.287Z,0.95
2019-01-10T01:14:31.638Z,0.95
2019-01-10T01:14:44.006Z,0.95
2019-01-10T01:14:56.407Z,0.95
2019-01-10T01:15:08.774Z,0.95
2019-01-10T01:15:21.115Z,0.95
2019-01-10T01:15:33.478Z,0.95
2019-01-10T01:15:45.825Z,0.95
2019-01-10T01:15:58.334Z,0.95
2019-01-10T01:16:10.685Z,0.95
2019-01-10T01:16:23.129Z,0.95
2019-01-10T01:16:35.596Z,0.95
2019-01-10T01:16:47.957Z,0.95
2019-01-10T01:17:00.509Z,0.95
2019-01-10T01:17:12.910Z,0.95
2019-01-10T01:17:27.177Z,0.95
2019-01-10T01:17:39.648Z,0.95
2019-01-10T01:17:52.005Z,0.95
2019-01-10T01:18:04.362Z,0.95
2019-01-10T01:18:16.752Z,0.95
2019-01-10T01:18:29.270Z,0.95
2019-01-10T01:18:41.696Z,0.95
2019-01-10T01:18:54.069Z,0.95
2019-01-10T01:19:06.410Z,0.95
2019-01-10T01:19:18.794Z,0.95
2019-01-10T01:19:31.152Z,0.95
2019-01-10T01:19:43.502Z,1.25
2019-01-10T01:19:55.838Z,1.25
2019-01-10T01:20:08.202Z,1.25
2019-01-10T01:20:20.561Z,1.25
2019-01-10T01:20:32.928Z,1.25
2019-01-10T01:20:45.283Z,1.25
2019-01-10T01:20:57.641Z,1.25
2019-01-10T01:21:10.010Z,1.25
2019-01-10T01:21:22.397Z,1.25
2019-01-10T01:21:34.775Z,1.25
2019-01-10T01:21:47.135Z,1.25
2019-01-10T01:21:59.484Z,1.25
2019-01-10T01:22:11.842Z,1.25
2019-01-10T01:22:24.190Z,1.25
2019-01-10T01:22:36.548Z,1.25
2019-01-10T01:22:48.948Z,1.25
2019-01-10T01:23:01.353Z,1.25
2019-01-10T01:23:13.815Z,1.25
2019-01-10T01:23:26.179Z,1.25
2019-01-10T01:23:38.536Z,1.25
2019-01-10T01:23:50.914Z,1.25
2019-01-10T01:24:03.284Z,1.25
2019-01-10T01:24:17.598Z,1.25
2019-01-10T01:24:29.989Z,1.25
2019-01-10T01:24:42.345Z,1.25
2019-01-10T01:24:54.688Z,1.25
2019-01-10T01:25:07.070Z,1.25
2019-01-10T01:25:19.535Z,1.25
2019-01-10T01:25:31.917Z,1.25
2019-01-10T01:25:44.279Z,1.25
2019-01-10T01:25:56.750Z,1.25
2019-01-10T01:26:09.205Z,1.25
2019-01-10T01:26:21.558Z,1.25
2019-01-10T01:26:33.936Z,1.25
2019-01-10T01:26:46.293Z,1.25
2019-01-10T01:26:58.645Z,1.25
2019-01-10T01:27:11.088Z,1.25
2019-01-10T01:27:23.721Z,1.25
2019-01-10T01:27:36.081Z,1.25
2019-01-10T01:27:48.437Z,1.25
2019-01-10T01:28:00.842Z,1.25
2019-01-10T01:28:13.202Z,1.25
2019-01-10T01:28:25.559Z,1.25
2019-01-10T01:28:37.916Z,1.25
2019-01-10T01:28:50.371Z,1.25
2019-01-10T01:29:02.770Z,1.25
2019-01-10T01:29:15.124Z,1.25
2019-01-10T01:29:29.738Z,1.25
2019-01-10T01:29:42.114Z,0.95
2019-01-10T01:29:54.488Z,0.95
2019-01-10T01:30:07.060Z,0.95
2019-01-10T01:30:19.430Z,0.95
2019-01-10T01:30:31.806Z,0.95
2019-01-10T01:30:44.206Z,0.95
2019-01-10T01:30:56.655Z,0.95
2019-01-10T01:31:09.018Z,0.95
2019-01-10T01:31:21.375Z,0.95
2019-01-10T01:31:33.722Z,0.95
2019-01-10T01:31:46.085Z,0.95
2019-01-10T01:31:58.616Z,0.95
2019-01-10T01:32:10.990Z,0.95
2019-01-10T01:32:23.434Z,0.95
2019-01-10T01:32:35.793Z,0.95
2019-01-10T01:32:48.170Z,0.95
2019-01-10T01:33:00.514Z,0.95
2019-01-10T01:33:12.898Z,0.95
2019-01-10T01:33:25.282Z,0.95
2019-01-10T01:33:37.642Z,0.95
2019-01-10T01:33:49.997Z,0.95
2019-01-10T01:34:02.387Z,0.95
2019-01-10T01:34:14.732Z,0.95
2019-01-10T01:34:27.097Z,0.95
2019-01-10T01:34:39.439Z,0.95
2019-01-10T01:34:51.804Z,0.95
2019-01-10T01:35:04.154Z,0.95
2019-01-10T01:35:16.516Z,0.95
2019-01-10T01:35:30.660Z,0.95
2019-01-10T01:35:43.026Z,0.95
2019-01-10T01:35:55.600Z,0.95
2019-01-10T01:36:08.138Z,0.95
2019-01-10T01:36:20.486Z,0.95
2019-01-10T01:36:32.841Z,0.95
2019-01-10T01:36:45.354Z,0.95
2019-01-10T01:36:57.756Z,0.95
2019-01-10T01:37:10.187Z,0.95
2019-01-10T01:37:22.836Z,0.95
2019-01-10T01:37:35.193Z,0.95
2019-01-10T01:37:47.553Z,0.95
2019-01-10T01:38:00.042Z,0.95
2019-01-10T01:38:12.412Z,0.95
2019-01-10T01:38:24.931Z,0.95
2019-01-10T01:38:37.285Z,0.95
2019-01-10T01:38:49.771Z,0.95
2019-01-10T01:39:02.117Z,0.95
2019-01-10T01:39:14.486Z,0.95
2019-01-10T01:39:26.854Z,0.95
2019-01-10T01:39:39.203Z,0.95
2019-01-10T01:39:51.562Z,0.9
2019-01-10T01:40:03.956Z,0.9
2019-01-10T01:40:16.446Z,0.9
2019-01-10T01:40:28.805Z,0.9
2019-01-10T01:40:41.142Z,0.9
2019-01-10T01:40:53.610Z,0.9
2019-01-10T01:41:07.666Z,0.9
2019-01-10T01:41:20.187Z,0.9
2019-01-10T01:41:32.547Z,0.9
2019-01-10T01:41:44.908Z,0.9
2019-01-10T01:41:57.250Z,0.9
2019-01-10T01:42:09.613Z,0.9
2019-01-10T01:42:21.977Z,0.9
2019-01-10T01:42:34.320Z,0.9
2019-01-10T01:42:46.695Z,0.9
2019-01-10T01:43:08.487Z,0.9
2019-01-10T01:43:20.845Z,0.9
2019-01-10T01:43:33.206Z,0.9
2019-01-10T01:43:45.548Z,0.9
2019-01-10T01:43:57.896Z,0.9
2019-01-10T01:44:10.344Z,0.9
2019-01-10T01:44:22.789Z,0.9
2019-01-10T01:44:35.336Z,0.9
2019-01-10T01:44:47.950Z,0.9
2019-01-10T01:45:00.320Z,0.9
2019-01-10T01:45:12.675Z,0.9
2019-01-10T01:45:25.039Z,0.9
2019-01-10T01:45:37.393Z,0.9
2019-01-10T01:45:49.754Z,0.9
2019-01-10T01:46:02.116Z,0.9
2019-01-10T01:46:16.830Z,0.9
2019-01-10T01:46:29.197Z,0.9
2019-01-10T01:46:41.563Z,0.9
2019-01-10T01:46:53.925Z,0.9
2019-01-10T01:47:06.539Z,0.9
2019-01-10T01:47:18.890Z,0.9
2019-01-10T01:47:31.233Z,0.9
2019-01-10T01:47:43.588Z,0.9
2019-01-10T01:47:55.961Z,0.9
2019-01-10T01:48:08.325Z,0.9
2019-01-10T01:48:20.772Z,0.9
2019-01-10T01:48:33.120Z,0.9
2019-01-10T01:48:45.498Z,0.9
2019-01-10T01:48:57.883Z,0.9
2019-01-10T01:49:10.261Z,0.9
2019-01-10T01:49:22.642Z,0.9
2019-01-10T01:49:35.069Z,0.9
2019-01-10T01:49:47.446Z,0.76
2019-01-10T01:49:59.802Z,0.76
2019-01-10T01:50:12.158Z,0.76
2019-01-10T01:50:24.669Z,0.76
2019-01-10T01:50:37.100Z,0.76
2019-01-10T01:50:49.463Z,0.76
2019-01-10T01:51:01.813Z,0.76
2019-01-10T01:51:14.165Z,0.76
2019-01-10T01:51:26.509Z,0.76
2019-01-10T01:51:38.878Z,0.76
2019-01-10T01:51:51.245Z,0.76
2019-01-10T01:52:03.606Z,0.76
2019-01-10T01:52:15.965Z,0.76
2019-01-10T01:52:28.348Z,0.76
2019-01-10T01:52:40.802Z,0.76
2019-01-10T01:52:54.752Z,0.76
2019-01-10T01:53:07.276Z,0.76
2019-01-10T01:53:19.625Z,0.76
2019-01-10T01:53:31.965Z,0.76
2019-01-10T01:53:44.351Z,0.76
2019-01-10T01:53:56.757Z,0.76
2019-01-10T01:54:09.210Z,0.76
2019-01-10T01:54:21.552Z,0.76
2019-01-10T01:54:33.902Z,0.76
2019-01-10T01:54:46.285Z,0.76
2019-01-10T01:54:58.646Z,0.76
2019-01-10T01:55:11.023Z,0.76
2019-01-10T01:55:23.386Z,0.76
2019-01-10T01:55:35.739Z,0.76
2019-01-10T01:55:48.172Z,0.76
2019-01-10T01:56:00.527Z,0.76
2019-01-10T01:56:12.897Z,0.76
2019-01-10T01:56:25.432Z,0.76
2019-01-10T01:56:37.774Z,0.76
2019-01-10T01:56:50.127Z,0.76
2019-01-10T01:57:02.500Z,0.76
2019-01-10T01:57:14.859Z,0.76
2019-01-10T01:57:27.303Z,0.76
2019-01-10T01:57:39.691Z,0.76
2019-01-10T01:57:52.114Z,0.76
2019-01-10T01:58:04.472Z,0.76
2019-01-10T01:58:16.830Z,0.76
2019-01-10T01:58:29.184Z,0.76
2019-01-10T01:58:41.535Z,0.76
2019-01-10T01:58:53.894Z,0.76
2019-01-10T01:59:07.775Z,0.76
2019-01-10T01:59:20.134Z,0.76
2019-01-10T01:59:32.483Z,0.76
2019-01-10T01:59:44.819Z,0.65
2019-01-10T01:59:57.179Z,0.65
2019-01-10T02:00:09.552Z,0.65
2019-01-10T02:00:22.131Z,0.65
2019-01-10T02:00:34.678Z,0.65
2019-01-10T02:00:47.073Z,0.65
2019-01-10T02:00:59.492Z,0.65
2019-01-10T02:01:11.934Z,0.65
2019-01-10T02:01:24.295Z,0.65
2019-01-10T02:01:36.658Z,0.65
2019-01-10T02:01:49.009Z,0.65
2019-01-10T02:02:01.387Z,0.65
2019-01-10T02:02:13.751Z,0.65
2019-01-10T02:02:26.154Z,0.65
2019-01-10T02:02:38.502Z,0.65
2019-01-10T02:02:50.918Z,0.65
2019-01-10T02:03:03.426Z,0.65
2019-01-10T02:03:15.793Z,0.65
2019-01-10T02:03:28.145Z,0.65
2019-01-10T02:03:40.599Z,0.65
2019-01-10T02:03:52.972Z,0.65
2019-01-10T02:04:05.338Z,0.65
2019-01-10T02:04:17.720Z,0.65
2019-01-10T02:04:30.085Z,0.65
2019-01-10T02:04:42.431Z,0.65
2019-01-10T02:04:55.021Z,0.65
2019-01-10T02:05:07.408Z,0.65
2019-01-10T02:05:19.958Z,0.65
2019-01-10T02:05:32.458Z,0.65
2019-01-10T02:05:44.906Z,0.65
2019-01-10T02:05:57.271Z,0.65
2019-01-10T02:06:09.662Z,0.65
2019-01-10T02:06:22.019Z,0.65
2019-01-10T02:06:34.368Z,0.65
2019-01-10T02:06:46.728Z,0.65
2019-01-10T02:06:59.101Z,0.65
2019-01-10T02:07:11.559Z,0.65
2019-01-10T02:07:23.917Z,0.65
2019-01-10T02:07:36.262Z,0.65
2019-01-10T02:07:48.730Z,0.65
2019-01-10T02:08:01.172Z,0.65
2019-01-10T02:08:13.530Z,0.65
2019-01-10T02:08:25.882Z,0.65
2019-01-10T02:08:38.228Z,0.65
2019-01-10T02:08:50.584Z,0.65
2019-01-10T02:09:04.622Z,0.65
2019-01-10T02:09:17.129Z,0.65
2019-01-10T02:09:29.504Z,0.65
2019-01-10T02:09:41.850Z,0.65
2019-01-10T02:09:54.223Z,1.9
2019-01-10T02:10:06.725Z,1.9
2019-01-10T02:10:19.075Z,1.9
2019-01-10T02:10:31.446Z,1.9
2019-01-10T02:10:43.803Z,1.9
2019-01-10T02:10:56.155Z,1.9
2019-01-10T02:11:08.507Z,1.9
2019-01-10T02:11:20.852Z,1.9
2019-01-10T02:11:33.215Z,1.9
2019-01-10T02:11:45.584Z,1.9
2019-01-10T02:11:57.924Z,1.9
2019-01-10T02:12:10.316Z,1.9
2019-01-10T02:12:22.671Z,1.9
2019-01-10T02:12:35.030Z,1.9
2019-01-10T02:12:47.384Z,1.9
2019-01-10T02:12:59.729Z,1.9
2019-01-10T02:13:21.015Z,1.9
2019-01-10T02:13:33.381Z,1.9
2019-01-10T02:13:45.718Z,1.9
2019-01-10T02:13:58.060Z,1.9
2019-01-10T02:14:10.423Z,1.9
2019-01-10T02:14:22.784Z,1.9
2019-01-10T02:14:35.131Z,1.9
2019-01-10T02:14:47.500Z,1.9
2019-01-10T02:14:59.848Z,1.9
2019-01-10T02:15:14.183Z,1.9
2019-01-10T02:15:26.686Z,1.9
2019-01-10T02:15:39.047Z,1.9
2019-01-10T02:15:51.413Z,1.9
2019-01-10T02:16:03.774Z,1.9
2019-01-10T02:16:16.214Z,1.9
2019-01-10T02:16:28.695Z,1.9
2019-01-10T02:16:41.062Z,1.9
2019-01-10T02:16:53.506Z,1.9
2019-01-10T02:17:05.854Z,1.9
2019-01-10T02:17:18.244Z,1.9
2019-01-10T02:17:30.591Z,1.9
2019-01-10T02:17:52.202Z,1.9
2019-01-10T02:18:04.555Z,1.9
2019-01-10T02:18:17.121Z,1.9
2019-01-10T02:18:29.718Z,1.9
2019-01-10T02:18:42.098Z,1.9
2019-01-10T02:18:54.526Z,1.9
2019-01-10T02:19:06.881Z,1.9
2019-01-10T02:19:19.215Z,1.9
2019-01-10T02:19:31.582Z,1.9
2019-01-10T02:19:43.944Z,1.1
2019-01-10T02:19:56.300Z,1.1
2019-01-10T02:20:08.666Z,1.1
2019-01-10T02:20:21.093Z,1.1
2019-01-10T02:20:33.519Z,1.1
2019-01-10T02:20:45.909Z,1.1
2019-01-10T02:20:58.271Z,1.1
2019-01-10T02:21:10.631Z,1.1
2019-01-10T02:21:22.989Z,1.1
2019-01-10T02:21:35.358Z,1.1
2019-01-10T02:21:47.722Z,1.1
2019-01-10T02:22:00.202Z,1.1
2019-01-10T02:22:12.583Z,1.1
2019-01-10T02:22:24.934Z,1.1
2019-01-10T02:22:39.714Z,1.1
2019-01-10T02:22:52.092Z,1.1
2019-01-10T02:23:04.484Z,1.1
2019-01-10T02:23:16.847Z,1.1
2019-01-10T02:23:29.227Z,1.1
2019-01-10T02:23:41.708Z,1.1
2019-01-10T02:23:54.065Z,1.1
2019-01-10T02:24:06.427Z,1.1
2019-01-10T02:24:18.788Z,1.1
2019-01-10T02:24:31.133Z,1.1
2019-01-10T02:24:43.514Z,1.1
2019-01-10T02:24:55.880Z,1.1
2019-01-10T02:25:08.339Z,1.1
2019-01-10T02:25:20.709Z,1.1
2019-01-10T02:25:33.073Z,1.1
2019-01-10T02:25:45.535Z,1.1
2019-01-10T02:25:57.966Z,1.1
2019-01-10T02:26:10.419Z,1.1
2019-01-10T02:26:22.779Z,1.1
2019-01-10T02:26:35.199Z,1.1
2019-01-10T02:26:47.571Z,1.1
2019-01-10T02:27:00.009Z,1.1
2019-01-10T02:27:12.364Z,1.1
2019-01-10T02:27:24.919Z,1.1
2019-01-10T02:27:37.273Z,1.1
2019-01-10T02:27:49.665Z,1.1
2019-01-10T02:28:02.016Z,1.1
2019-01-10T02:28:14.395Z,1.1
2019-01-10T02:28:28.785Z,1.1
2019-01-10T02:28:41.290Z,1.1
2019-01-10T02:28:53.663Z,1.1
2019-01-10T02:29:06.036Z,1.1
2019-01-10T02:29:18.390Z,1.1
2019-01-10T02:29:30.775Z,1.1
2019-01-10T02:29:43.137Z,1.1
2019-01-10T02:29:55.489Z,1.36
2019-01-10T02:30:07.904Z,1.36
2019-01-10T02:30:20.573Z,1.36
2019-01-10T02:30:42.973Z,1.36
2019-01-10T02:30:55.411Z,1.36
2019-01-10T02:31:07.777Z,1.36
2019-01-10T02:31:20.157Z,1.36
2019-01-10T02:31:32.646Z,1.36
2019-01-10T02:31:45.036Z,1.36
2019-01-10T02:31:57.597Z,1.36
2019-01-10T02:32:09.978Z,1.36
2019-01-10T02:32:22.377Z,1.36
2019-01-10T02:32:34.771Z,1.36
2019-01-10T02:32:47.186Z,1.36
2019-01-10T02:32:59.601Z,1.36
2019-01-10T02:33:12.225Z,1.36
2019-01-10T02:33:24.692Z,1.36
2019-01-10T02:33:37.079Z,1.36
2019-01-10T02:33:49.466Z,1.36
2019-01-10T02:34:01.852Z,1.36
2019-01-10T02:34:14.267Z,1.36
2019-01-10T02:34:26.632Z,1.36
2019-01-10T02:34:39.015Z,1.36
2019-01-10T02:34:51.409Z,1.36
2019-01-10T02:35:03.782Z,1.36
2019-01-10T02:35:16.164Z,1.36
2019-01-10T02:35:28.594Z,1.36
2019-01-10T02:35:41.094Z,1.36
2019-01-10T02:35:53.468Z,1.36
2019-01-10T02:36:06.038Z,1.36
2019-01-10T02:36:18.427Z,1.36
2019-01-10T02:36:30.910Z,1.36
2019-01-10T02:36:43.470Z,1.36
2019-01-10T02:36:55.944Z,1.36
2019-01-10T02:37:08.313Z,1.36
2019-01-10T02:37:20.847Z,1.36
2019-01-10T02:37:33.235Z,1.36
2019-01-10T02:37:45.670Z,1.36
2019-01-10T02:37:58.342Z,1.36
2019-01-10T02:38:10.745Z,1.36
2019-01-10T02:38:23.132Z,1.36
2019-01-10T02:38:35.527Z,1.36
2019-01-10T02:38:47.909Z,1.36
2019-01-10T02:39:00.434Z,1.36
2019-01-10T02:39:12.815Z,1.36
2019-01-10T02:39:25.181Z,1.36
2019-01-10T02:39:37.569Z,1.36
2019-01-10T02:39:49.944Z,1.74
2019-01-10T02:40:02.706Z,1.74
2019-01-10T02:40:15.237Z,1.74
2019-01-10T02:40:27.602Z,1.74
2019-01-10T02:40:39.967Z,1.74
2019-01-10T02:40:52.575Z,1.74
2019-01-10T02:41:07.355Z,1.74
2019-01-10T02:41:20.024Z,1.74
2019-01-10T02:41:32.416Z,1.74
2019-01-10T02:41:44.788Z,1.74
2019-01-10T02:41:57.182Z,1.74
2019-01-10T02:42:09.562Z,1.74
2019-01-10T02:42:21.935Z,1.74
2019-01-10T02:42:34.405Z,1.74
2019-01-10T02:42:46.800Z,1.74
2019-01-10T02:42:59.231Z,1.74
2019-01-10T02:43:11.631Z,1.74
2019-01-10T02:43:33.111Z,1.74
2019-01-10T02:43:45.507Z,1.74
2019-01-10T02:43:57.895Z,1.74
2019-01-10T02:44:10.517Z,1.74
2019-01-10T02:44:23.046Z,1.74
2019-01-10T02:44:35.592Z,1.74
2019-01-10T02:44:48.128Z,1.74
2019-01-10T02:45:00.544Z,1.74
2019-01-10T02:45:12.950Z,1.74
2019-01-10T02:45:25.361Z,1.74
2019-01-10T02:45:37.728Z,1.74
2019-01-10T02:45:50.127Z,1.74
2019-01-10T02:46:02.568Z,1.74
2019-01-10T02:46:14.960Z,1.74
2019-01-10T02:46:27.452Z,1.74
2019-01-10T02:46:39.814Z,1.74
2019-01-10T02:46:52.212Z,1.74
2019-01-10T02:47:04.708Z,1.74
2019-01-10T02:47:17.073Z,1.74
2019-01-10T02:47:29.496Z,1.74
2019-01-10T02:47:41.847Z,1.74
2019-01-10T02:47:54.246Z,1.74
2019-01-10T02:48:06.716Z,1.74
2019-01-10T02:48:21.937Z,1.74
2019-01-10T02:48:34.336Z,1.74
2019-01-10T02:48:46.696Z,1.74
2019-01-10T02:48:59.129Z,1.74
2019-01-10T02:49:11.530Z,1.74
2019-01-10T02:49:24.003Z,1.74
2019-01-10T02:49:36.352Z,1.74